KTBN/TBN METAR and TAF weather

Enter ICAO airport designator
Station Type Date Time Source
KTBN METAR 2019/12/08 10:56 UTC NOAA

KTBN 081056Z AUTO 14007KT 8SM FEW200 01/00 A3000 RMK AO2 SLP168 T00071005 $


Station Type Date Time Source
KTBN Decoded METAR 2019/12/08 10:56 UTC NOAA

Fort Leonard Wood, MO, United States (KTBN) 37-44N 092-08W
Dec 08, 2019 - 05:56 AM EST / 2019.12.08 1056 UTC
Wind: from the SE (140 degrees) at 8 MPH (7 KT):0
Visibility: 8 mile(s):0
Sky conditions: mostly clear
Temperature: 33.3 F (0.7 C)
Windchill: 26 F (-3 C):1
Dew Point: 31.1 F (-0.5 C)
Relative Humidity: 91%
Pressure (altimeter): 30 in. Hg (1015 hPa)
ob: KTBN 081056Z AUTO 14007KT 8SM FEW200 01/00 A3000 RMK AO2 SLP168 T00071005
cycle: 11

Station Type Date Time Source
KTBN TAF UTC NOAA

Error!

Example: see airport list